View, Idaho
Current Conditions -  °F | °C
As of 8:53 AM on Monday 24 Nov 2014 (Local Time) from KBYI Reporting Station
Clear Clear  
Wind Chill: 28°   Ceiling: Unl
Heat Index: 33°   Visibility: 10mi
Dew Point: 26°   Wind: 6mph
Humidity: 75%   Direction: 270°W
Pressure: 30.32"   Gusts: NA
Location:  42.5011°N, 113.814°W
Report Text: KBYI 241553Z AUTO 27005KT 10SM CLR 01/M03 A3032 RMK AO2 SLP283 T00061033
Loading
Personal Weather Stations






























Interactive Weather Map New forecast layout! Learn more

10-Day Weather Forecast

Advertisements
Track Severe Weather on mobile